Latest Coastal Weather Observations for Dum In Mirrie

IDD60701

Issued at 6:25 pm CST Friday 25 July 2014 (issued every 10 minutes, with the page automatically refreshed every 10 minutes)

About coastal observations | Map of coastal stations | Coastal observations for NT | Marine services | Other Formats
Station Details ID: 014277 Name: DUM IN MIRRIE AIRSTRIP Lat: -12.63 Lon: 130.37 Height: 3.5 m
Data from the previous 72 hours. | See also: Recent months at Dum In Mirrie
Date/Time
CST
Temp

°C
Wind Pressure Rain
since 9am
mm
Weather Cloud Vis
km
Sea
Height
m
Swell
Dir
 
Speed
knots
Gust
knots
hPa Trend Height
m
Period
s
Dir
25/06:00pm 26.3 W 2 5 1014.2 - 0.0 - - - - - - -
25/05:30pm 26.8 WNW 3 6 1013.9 - 0.0 - - - - - - -
25/05:00pm 26.8 NW 4 6 1013.6 - 0.0 - - - - - - -
25/04:30pm 27.4 NNW 5 8 1013.3 - 0.0 - - - - - - -
25/04:00pm 27.9 N 6 10 1013.3 - 0.0 - - - - - - -
25/03:30pm 27.4 N 6 10 1013.3 - 0.0 - - - - - - -
25/03:00pm 27.7 N 7 11 1013.5 - 0.0 - - - - - - -
25/02:30pm 28.3 N 8 11 1013.8 - 0.0 - - - - - - -
25/02:00pm 27.8 N 7 10 1014.2 - 0.0 - - - - - - -
25/01:30pm 28.4 NNW 6 9 1014.6 - 0.0 - - - - - - -
25/01:00pm 29.2 NE 5 9 1015.1 - 0.0 - - - - - - -
25/12:30pm 28.7 ENE 4 8 1015.7 - 0.0 - - - - - - -
25/12:00pm 27.9 E 6 10 1016.0 - 0.0 - - - - - - -
25/11:30am 27.3 E 6 9 1016.2 - 0.0 - - - - - - -
25/11:00am 27.2 E 6 9 1016.6 - 0.0 - - - - - - -
25/10:30am 26.7 E 6 9 1016.8 - 0.0 - - - - - - -
25/10:00am 26.1 E 4 6 1016.9 - 0.0 - - - - - - -
25/09:30am 23.7 E 4 6 1016.6 - 0.0 - - - - - - -
25/09:00am 22.1 E 4 6 1016.5 - 0.0 - - - - - - -
25/08:30am 21.6 E 5 7 1016.3 - 0.0 - - - - - - -
25/08:00am 21.6 E 4 5 1015.9 - 0.0 - - - - - - -
25/07:30am 21.8 E 4 6 1015.4 - 0.0 - - - - - - -
25/07:00am 21.1 E 3 4 1014.9 - 0.0 - - - - - - -
25/06:30am 20.9 E 3 4 1014.7 - 0.0 - - - - - - -
25/06:00am 21.1 E 3 4 1014.4 - 0.0 - - - - - - -
25/05:30am 18.8 E 2 4 1014.2 - 0.0 - - - - - - -
25/05:00am 19.1 SSE 1 2 1014.2 - 0.0 - - - - - - -
25/04:30am 19.2 CALM 0 0 1013.8 - 0.0 - - - - - - -
25/04:00am 20.5 S 1 2 1013.8 - 0.0 - - - - - - -
25/03:30am 20.3 SSE 1 2 1013.8 - 0.0 - - - - - - -
25/03:00am 20.0 SSE 2 2 1013.9 - 0.0 - - - - - - -
25/02:30am 19.6 CALM 0 0 1014.0 - 0.0 - - - - - - -
25/02:00am 19.8 SSE 1 2 1014.2 - 0.0 - - - - - - -
25/01:30am 19.9 SSE 1 2 1014.3 - 0.0 - - - - - - -
25/01:00am 20.1 SSE 0 3 1014.2 - 0.0 - - - - - - -
25/12:30am 20.4 S 1 2 1014.0 - 0.0 - - - - - - -
25/12:00am 20.1 WSW 0 0 1013.9 - 0.0 - - - - - - -
 
Date/Time
CST
Temp

°C
Wind Pressure Rain
since 9am
mm
Weather Cloud Vis
km
Sea
Height
m
Swell
Dir
 
Speed
knots
Gust
knots
hPa Trend Height
m
Period
s
Dir
24/11:30pm 20.8 CALM 0 1 1014.1 - 0.0 - - - - - - -
24/11:00pm 22.1 CALM 0 0 1014.1 - 0.0 - - - - - - -
24/10:30pm 23.6 SSW 1 3 1014.0 - 0.0 - - - - - - -
24/10:00pm 24.1 SSW 3 5 1013.9 - 0.0 - - - - - - -
24/09:30pm 24.1 SW 3 6 1013.8 - 0.0 - - - - - - -
24/09:00pm 24.1 SW 1 3 1013.6 - 0.0 - - - - - - -
24/08:30pm 24.1 SSW 2 4 1013.1 - 0.0 - - - - - - -
24/08:00pm 24.6 SSW 2 4 1012.9 - 0.0 - - - - - - -
24/07:30pm 24.8 WSW 2 5 1012.5 - 0.0 - - - - - - -
24/07:00pm 25.0 WSW 2 6 1012.2 - 0.0 - - - - - - -
24/06:30pm 25.7 WSW 4 9 1011.9 - 0.0 - - - - - - -
24/06:00pm 26.4 W 5 9 1011.7 - 0.0 - - - - - - -
24/05:30pm 26.9 W 4 9 1011.5 - 0.0 - - - - - - -
24/05:00pm 27.1 W 5 8 1011.4 - 0.0 - - - - - - -
24/04:30pm 27.2 WNW 5 8 1011.3 - 0.0 - - - - - - -
24/04:00pm 27.3 NW 5 9 1011.1 - 0.0 - - - - - - -
24/03:30pm 28.4 NW 4 7 1011.2 - 0.0 - - - - - - -
24/03:00pm 27.7 NW 6 8 1011.4 - 0.0 - - - - - - -
24/02:30pm 27.7 NNW 6 9 1011.8 - 0.0 - - - - - - -
24/02:00pm 27.9 NNW 6 10 1012.3 - 0.0 - - - - - - -
24/01:30pm 28.1 N 7 10 1013.0 - 0.0 - - - - - - -
24/01:00pm 29.1 NNE 4 7 1013.4 - 0.0 - - - - - - -
24/12:30pm 29.1 NE 6 12 1013.9 - 0.0 - - - - - - -
24/12:00pm 29.0 NE 5 9 1014.3 - 0.0 - - - - - - -
24/11:30am 27.8 WSW 3 4 1014.8 - 0.0 - - - - - - -
24/11:00am 28.4 SSE 2 4 1015.0 - 0.0 - - - - - - -
24/10:30am 27.4 E 2 5 1015.2 - 0.0 - - - - - - -
24/10:00am 26.4 ENE 3 5 1015.2 - 0.0 - - - - - - -
24/09:30am 25.2 E 3 5 1015.1 - 0.0 - - - - - - -
24/09:00am 24.2 E 3 5 1015.0 - 0.0 - - - - - - -
24/08:30am 22.7 E 3 4 1014.6 - 0.0 - - - - - - -
24/08:00am 21.3 E 2 3 1014.2 - 0.0 - - - - - - -
24/07:30am 20.1 E 3 4 1013.8 - 0.0 - - - - - - -
24/07:00am 20.4 E 3 6 1013.5 - 0.0 - - - - - - -
24/06:30am 19.4 ESE 3 5 1013.1 - 0.0 - - - - - - -
24/06:00am 17.9 ESE 2 2 1012.7 - 0.0 - - - - - - -
24/05:30am 17.9 SE 2 2 1012.6 - 0.0 - - - - - - -
24/05:00am 18.1 ESE 2 3 1012.6 - 0.0 - - - - - - -
24/04:30am 18.8 ESE 3 3 1012.4 - 0.0 - - - - - - -
24/04:00am 17.8 CALM 0 1 1012.3 - 0.0 - - - - - - -
24/03:30am 18.1 CALM 0 2 1012.3 - 0.0 - - - - - - -
24/03:00am 18.1 CALM 0 0 1012.7 - 0.0 - - - - - - -
24/02:30am 18.5 CALM 0 2 1013.0 - 0.0 - - - - - - -
24/02:00am 18.9 CALM 0 0 1013.3 - 0.0 - - - - - - -
24/01:30am 18.8 CALM 0 0 1013.4 - 0.0 - - - - - - -
24/01:00am 18.9 CALM 0 0 1013.6 - 0.0 - - - - - - -
24/12:30am 19.0 CALM 0 0 1013.5 - 0.0 - - - - - - -
24/12:00am 18.7 CALM 0 0 1013.5 - 0.0 - - - - - - -
 
Date/Time
CST
Temp

°C
Wind Pressure Rain
since 9am
mm
Weather Cloud Vis
km
Sea
Height
m
Swell
Dir
 
Speed
knots
Gust
knots
hPa Trend Height
m
Period
s
Dir
23/11:30pm 18.9 CALM 0 0 1013.5 - 0.0 - - - - - - -
23/11:00pm 18.8 CALM 0 0 1013.6 - 0.0 - - - - - - -
23/10:30pm 19.2 CALM 0 0 1013.5 - 0.0 - - - - - - -
23/10:00pm 19.4 CALM 0 2 1013.3 - 0.0 - - - - - - -
23/09:30pm 19.5 CALM 0 0 1013.1 - 0.0 - - - - - - -
23/09:00pm 19.4 NW 2 2 1012.7 - 0.0 - - - - - - -
23/08:30pm 20.0 CALM 0 0 1012.4 - 0.0 - - - - - - -
23/08:00pm 20.5 NNW 2 2 1012.1 - 0.0 - - - - - - -
23/07:30pm 21.4 N 2 2 1011.8 - 0.0 - - - - - - -
23/07:00pm 23.3 NNW 2 3 1011.6 - 0.0 - - - - - - -
23/06:30pm 24.4 NW 2 4 1011.4 - 0.0 - - - - - - -
23/06:00pm 25.4 NW 3 7 1011.3 - 0.0 - - - - - - -
23/05:30pm 26.2 NW 4 6 1011.2 - 0.0 - - - - - - -
23/05:00pm 26.1 NW 5 9 1011.0 - 0.0 - - - - - - -
23/04:30pm 26.4 NNW 6 10 1010.8 - 0.0 - - - - - - -
23/04:00pm 26.8 NW 6 9 1010.9 - 0.0 - - - - - - -
23/03:30pm 26.7 NNW 7 11 1010.7 - 0.0 - - - - - - -
23/03:00pm 27.8 NNW 5 9 1010.9 - 0.0 - - - - - - -
23/02:30pm 27.7 NW 7 10 1011.3 - 0.0 - - - - - - -
23/02:00pm 27.9 W 5 9 1011.8 - 0.0 - - - - - - -
23/01:30pm 28.6 NNE 6 8 1012.3 - 0.0 - - - - - - -
23/01:00pm 28.9 NE 4 7 1012.9 - 0.0 - - - - - - -
23/12:30pm 27.8 ENE 4 7 1013.6 - 0.0 - - - - - - -
23/12:00pm 27.0 ESE 3 7 1014.2 - 0.0 - - - - - - -
23/11:30am 26.9 E 5 8 1014.8 - 0.0 - - - - - - -
23/11:00am 25.8 E 7 10 1015.2 - 0.0 - - - - - - -
23/10:30am 25.4 E 7 10 1015.5 - 0.0 - - - - - - -
23/10:00am 25.2 ESE 4 7 1015.7 - 0.0 - - - - - - -
23/09:30am 24.8 SE 3 6 1015.7 - 0.0 - - - - - - -
23/09:00am 23.8 SE 2 5 1015.5 - 0.0 - - - - - - -
23/08:30am 22.3 ESE 2 4 1015.2 - 0.0 - - - - - - -
23/08:00am 19.9 SE 1 2 1015.0 - 0.0 - - - - - - -
23/07:30am 18.2 ESE 3 4 1014.7 - 0.0 - - - - - - -
23/07:00am 17.8 ESE 3 4 1014.3 - 0.0 - - - - - - -
23/06:30am 17.3 ESE 1 2 1014.1 - 0.0 - - - - - - -
23/06:00am 18.3 SE 2 2 1013.8 - 0.0 - - - - - - -
23/05:30am 19.3 SE 2 3 1013.7 - 0.0 - - - - - - -
23/05:00am 20.0 SSE 3 4 1013.5 - 0.0 - - - - - - -
23/04:30am 20.4 SSE 2 3 1013.4 - 0.0 - - - - - - -
23/04:00am 20.2 SSE 3 4 1013.4 - 0.0 - - - - - - -
23/03:30am 20.4 SSE 2 4 1013.3 - 0.0 - - - - - - -
23/03:00am 20.7 SSE 3 4 1013.5 - 0.0 - - - - - - -
23/02:30am 20.4 SSE 2 4 1013.7 - 0.0 - - - - - - -
23/02:00am 20.3 S 2 3 1014.0 - 0.0 - - - - - - -
23/01:30am 20.6 S 3 5 1014.4 - 0.0 - - - - - - -
23/01:00am 19.3 S 2 3 1014.6 - 0.0 - - - - - - -
23/12:30am 19.0 CALM 0 1 1014.6 - 0.0 - - - - - - -
23/12:00am 21.0 NNE 3 4 1014.5 - 0.0 - - - - - - -
 
Date/Time
CST
Temp

°C
Wind Pressure Rain
since 9am
mm
Weather Cloud Vis
km
Sea
Height
m
Swell
Dir
 
Speed
knots
Gust
knots
hPa Trend Height
m
Period
s
Dir
22/11:30pm 21.8 NNE 4 6 1014.5 - 0.0 - - - - - - -
22/11:00pm 19.8 NE 3 5 1014.4 - 0.0 - - - - - - -
22/10:30pm 18.9 ENE 2 3 1014.3 - 0.0 - - - - - - -
22/10:00pm 19.8 ENE 3 4 1014.1 - 0.0 - - - - - - -
22/09:30pm 19.6 ENE 3 4 1013.8 - 0.0 - - - - - - -
22/09:00pm 18.9 E 1 2 1013.5 - 0.0 - - - - - - -
22/08:30pm 19.7 CALM 0 3 1013.2 - 0.0 - - - - - - -
22/08:00pm 20.6 CALM 0 0 1012.9 - 0.0 - - - - - - -
22/07:30pm 22.6 CALM 0 1 1012.6 - 0.0 - - - - - - -
22/07:00pm 24.0 NNE 5 7 1012.2 - 0.0 - - - - - - -
22/06:30pm 24.7 NNE 6 10 1011.8 - 0.0 - - - - - - -

Other Formats:

Comma delimited format used in spreadsheet applications
http://www.bom.gov.au/fwo/IDD60701/IDD60701.94116.axf

JavaScript Object Notation format (JSON) in row-major order
http://www.bom.gov.au/fwo/IDD60701/IDD60701.94116.json